Time;durP1;ratioP1;P1;durP2;ratioP2;P2;SDS_P1;SDS_P2;PMS_P1;PMS_P2;Temp;Humidity;BMP_temperature;BMP_pressure;BME280_temperature;BME280_humidity;BME280_pressure;Samples;Min_cycle;Max_cycle;Signal;HPM_P1;HPM_P2
2022/01/14 00:01:36;;;;;;;51.20;23.25;;;2.20;83.60;;;;;;5098589;28;20460;-73
2022/01/14 00:04:05;;;;;;;53.53;22.07;;;2.20;83.40;;;;;;5102839;28;20243;-73
2022/01/14 00:06:35;;;;;;;48.80;20.40;;;2.20;83.40;;;;;;5100518;27;20197;-73
2022/01/14 00:09:07;;;;;;;42.87;18.97;;;2.20;83.30;;;;;;5099457;28;20193;-73
2022/01/14 00:11:39;;;;;;;44.90;19.40;;;2.20;83.10;;;;;;5099365;28;20185;-73
2022/01/14 00:14:21;;;;;;;44.53;18.67;;;2.20;83.10;;;;;;5094516;28;20189;-73
2022/01/14 00:16:53;;;;;;;48.33;20.87;;;2.20;83.10;;;;;;5097335;28;20719;-72
2022/01/14 00:19:22;;;;;;;41.00;19.50;;;2.20;83.00;;;;;;5099973;28;20193;-76
2022/01/14 00:21:51;;;;;;;47.87;20.80;;;2.20;82.80;;;;;;5096063;28;20216;-74
2022/01/14 00:24:31;;;;;;;45.83;20.60;;;2.20;82.80;;;;;;5101285;28;20277;-73
2022/01/14 00:32:42;;;;;;;53.03;21.03;;;2.20;82.50;;;;;;5102351;28;20195;-73
2022/01/14 00:35:10;;;;;;;50.40;19.97;;;2.10;82.40;;;;;;5099646;28;20192;-73
2022/01/14 00:37:40;;;;;;;50.90;19.60;;;2.10;82.40;;;;;;5098424;28;20416;-73
2022/01/14 00:40:09;;;;;;;48.60;20.87;;;2.10;82.40;;;;;;5101491;28;20228;-74
2022/01/14 00:42:38;;;;;;;47.33;20.10;;;2.00;82.70;;;;;;5099813;28;20262;-73
2022/01/14 00:45:07;;;;;;;48.93;20.50;;;2.10;82.50;;;;;;5094527;28;20193;-73
2022/01/14 00:47:37;;;;;;;48.10;19.47;;;2.10;82.50;;;;;;5096542;28;20917;-75
2022/01/14 00:50:08;;;;;;;52.77;21.50;;;2.10;82.50;;;;;;5100647;28;20696;-73
2022/01/14 00:52:37;;;;;;;48.20;21.70;;;2.10;82.40;;;;;;5099080;28;20193;-74
2022/01/14 00:55:11;;;;;;;47.17;19.63;;;2.00;82.50;;;;;;5092166;28;20708;-74
2022/01/14 01:00:28;;;;;;;49.37;20.27;;;2.00;82.40;;;;;;5100764;28;20189;-74
2022/01/14 01:02:57;;;;;;;50.00;19.67;;;2.00;82.40;;;;;;5099195;28;20193;-73
2022/01/14 01:05:25;;;;;;;46.57;20.00;;;2.00;82.40;;;;;;5100143;28;20200;-73
2022/01/14 01:08:05;;;;;;;43.10;18.93;;;2.00;82.40;;;;;;5095845;28;20197;-73
2022/01/14 01:10:39;;;;;;;47.10;19.37;;;2.00;82.30;;;;;;5101237;28;20189;-73
2022/01/14 01:13:15;;;;;;;40.50;19.47;;;2.00;82.20;;;;;;5100522;28;20177;-73
2022/01/14 01:15:43;;;;;;;42.97;19.30;;;2.00;82.10;;;;;;5091752;28;20204;-75
2022/01/14 01:18:12;;;;;;;49.47;19.37;;;2.00;82.10;;;;;;5096334;28;20190;-73
2022/01/14 01:20:40;;;;;;;50.53;22.70;;;2.00;82.10;;;;;;5100455;28;21127;-73
2022/01/14 01:23:08;;;;;;;42.50;18.53;;;2.00;82.50;;;;;;5092928;28;20687;-73
2022/01/14 01:25:42;;;;;;;48.73;19.83;;;1.90;82.30;;;;;;5100931;28;20196;-73
2022/01/14 01:28:11;;;;;;;43.83;18.90;;;2.00;82.40;;;;;;5095756;28;20193;-73
2022/01/14 01:31:04;;;;;;;44.60;19.40;;;2.00;82.20;;;;;;5099753;28;20197;-73
2022/01/14 01:33:33;;;;;;;47.10;19.53;;;2.00;82.20;;;;;;5098051;28;20651;-73
2022/01/14 01:36:02;;;;;;;44.47;19.30;;;1.90;82.10;;;;;;5097431;28;20220;-73
2022/01/14 01:38:30;;;;;;;45.20;18.03;;;2.00;82.10;;;;;;5100241;28;20246;-73
2022/01/14 01:41:00;;;;;;;39.77;17.20;;;1.90;82.00;;;;;;5097880;28;20757;-73
2022/01/14 01:43:30;;;;;;;41.97;18.37;;;2.00;82.00;;;;;;5098361;28;20185;-73
2022/01/14 01:45:59;;;;;;;46.10;20.80;;;2.00;81.90;;;;;;5095555;28;20245;-74
2022/01/14 01:48:27;;;;;;;40.37;17.80;;;1.90;81.70;;;;;;5095740;28;20198;-73
2022/01/14 01:50:57;;;;;;;49.00;20.38;;;2.00;81.90;;;;;;5098615;28;20763;-74
2022/01/14 01:53:26;;;;;;;45.57;19.03;;;2.00;81.80;;;;;;5094923;28;20213;-74
2022/01/14 01:55:54;;;;;;;37.33;17.60;;;1.90;81.60;;;;;;5101988;28;20204;-73
2022/01/14 01:58:24;;;;;;;38.83;17.73;;;1.90;81.60;;;;;;5098391;28;20543;-74
2022/01/14 02:00:52;;;;;;;43.33;18.40;;;1.90;81.70;;;;;;5100293;28;20189;-74
2022/01/14 02:03:21;;;;;;;47.67;21.52;;;1.80;81.70;;;;;;5099957;28;20572;-74
2022/01/14 02:05:49;;;;;;;46.57;19.07;;;1.80;81.70;;;;;;5099747;28;20257;-74
2022/01/14 02:08:17;;;;;;;39.37;19.07;;;1.70;81.90;;;;;;5099953;28;20204;-74
2022/01/14 02:10:46;;;;;;;46.20;18.50;;;1.70;81.90;;;;;;5098240;28;20211;-73
2022/01/14 02:13:15;;;;;;;45.20;18.97;;;1.70;82.00;;;;;;5098444;28;20190;-74
2022/01/14 02:15:49;;;;;;;40.90;17.50;;;1.70;82.20;;;;;;5097808;28;20197;-74
2022/01/14 02:18:38;;;;;;;38.47;16.77;;;1.60;82.20;;;;;;5094308;28;20201;-73
2022/01/14 02:24:08;;;;;;;37.50;17.27;;;1.60;82.40;;;;;;5099796;28;20203;-73
2022/01/14 02:26:47;;;;;;;44.57;19.93;;;1.60;82.50;;;;;;5093990;28;20437;-73
2022/01/14 02:29:16;;;;;;;41.00;17.67;;;1.50;82.60;;;;;;5096890;28;20441;-73
2022/01/14 02:31:44;;;;;;;41.73;18.80;;;1.50;82.80;;;;;;5099189;28;20288;-73
2022/01/14 02:34:14;;;;;;;38.93;17.03;;;1.50;82.90;;;;;;5103440;28;20202;-73
2022/01/14 02:36:45;;;;;;;47.30;18.43;;;1.50;82.80;;;;;;5103306;28;20235;-72
2022/01/14 02:39:15;;;;;;;41.00;17.53;;;1.50;82.70;;;;;;5096693;28;20192;-73
2022/01/14 02:41:45;;;;;;;43.00;18.30;;;1.50;82.70;;;;;;5104176;28;20219;-74
2022/01/14 02:44:18;;;;;;;38.93;17.37;;;1.50;82.80;;;;;;5104088;28;20200;-73
2022/01/14 02:46:53;;;;;;;41.60;16.83;;;1.40;82.80;;;;;;5101243;28;20874;-73
2022/01/14 02:49:23;;;;;;;39.93;18.10;;;1.50;82.90;;;;;;5101287;28;20197;-73
2022/01/14 02:51:52;;;;;;;43.67;19.67;;;1.50;82.80;;;;;;5103294;28;21160;-73
2022/01/14 02:54:23;;;;;;;38.70;17.67;;;1.50;82.80;;;;;;5102967;28;20448;-73
2022/01/14 02:56:54;;;;;;;42.97;18.00;;;1.50;82.80;;;;;;5101379;28;20218;-73
2022/01/14 02:59:22;;;;;;;37.10;16.97;;;1.50;82.70;;;;;;5102442;28;20181;-73
2022/01/14 03:01:51;;;;;;;42.53;18.43;;;1.50;82.70;;;;;;5099203;28;20224;-74
2022/01/14 03:04:22;;;;;;;39.83;16.23;;;1.60;82.60;;;;;;5103062;28;20204;-73
2022/01/14 03:06:52;;;;;;;37.53;17.10;;;1.60;82.60;;;;;;5097388;28;20559;-73
2022/01/14 03:09:20;;;;;;;43.40;18.27;;;1.60;82.50;;;;;;5099596;28;20208;-74
2022/01/14 03:11:53;;;;;;;42.20;17.77;;;1.60;82.40;;;;;;5101225;28;20216;-74
2022/01/14 03:14:24;;;;;;;42.07;17.27;;;1.60;82.30;;;;;;5093671;28;20597;-74
2022/01/14 03:16:54;;;;;;;41.40;18.03;;;1.70;82.30;;;;;;5095814;28;20189;-73
2022/01/14 03:19:25;;;;;;;46.30;18.00;;;1.70;82.30;;;;;;5101089;28;20246;-74
2022/01/14 03:22:06;;;;;;;39.37;17.57;;;1.70;82.20;;;;;;5101379;28;20185;-73
2022/01/14 03:27:23;;;;;;;45.50;17.10;;;1.80;81.90;;;;;;5075584;28;20266;-74
2022/01/14 03:29:52;;;;;;;38.67;16.50;;;1.80;81.70;;;;;;5096486;28;20208;-73
2022/01/14 03:32:20;;;;;;;44.73;19.67;;;1.80;81.70;;;;;;5100871;28;20239;-76
2022/01/14 03:34:48;;;;;;;43.47;18.13;;;1.70;81.50;;;;;;5103199;28;20217;-73
2022/01/14 03:37:18;;;;;;;40.77;17.67;;;1.70;81.50;;;;;;5104783;28;20177;-75
2022/01/14 03:39:46;;;;;;;40.23;16.47;;;1.70;81.60;;;;;;5101872;28;20204;-74
2022/01/14 03:42:14;;;;;;;45.30;17.30;;;1.70;81.60;;;;;;5101711;28;20192;-74
2022/01/14 03:44:43;;;;;;;44.43;18.87;;;1.60;81.60;;;;;;5095537;28;20212;-74
2022/01/14 03:47:11;;;;;;;40.43;17.57;;;1.60;81.80;;;;;;5096080;28;20189;-75
2022/01/14 03:49:39;;;;;;;42.07;19.23;;;1.50;81.90;;;;;;5100754;28;20189;-74
2022/01/14 03:52:08;;;;;;;42.87;17.57;;;1.50;82.10;;;;;;5101572;28;20193;-74
2022/01/14 03:54:38;;;;;;;47.60;20.07;;;1.40;82.20;;;;;;5099914;28;20196;-73
2022/01/14 03:57:07;;;;;;;47.37;18.50;;;1.40;82.30;;;;;;5102347;28;20602;-74
2022/01/14 03:59:35;;;;;;;46.53;18.93;;;1.40;82.50;;;;;;5102943;28;20257;-73
2022/01/14 04:02:05;;;;;;;43.97;18.53;;;1.30;82.60;;;;;;5102320;28;20201;-74
2022/01/14 04:04:35;;;;;;;45.23;20.33;;;1.30;82.80;;;;;;5102064;28;20246;-74
2022/01/14 04:07:04;;;;;;;40.40;18.60;;;1.30;82.90;;;;;;5103102;28;20197;-74
2022/01/14 04:09:36;;;;;;;47.23;20.07;;;1.20;83.00;;;;;;5101976;28;20641;-74
2022/01/14 04:12:10;;;;;;;47.20;19.67;;;1.20;83.10;;;;;;5099904;28;20185;-74
2022/01/14 04:17:24;;;;;;;48.03;20.63;;;1.20;83.50;;;;;;5094842;28;20257;-73
2022/01/14 04:19:52;;;;;;;45.37;19.83;;;1.20;83.40;;;;;;5097089;28;20193;-74
2022/01/14 04:22:20;;;;;;;40.87;19.37;;;1.20;83.30;;;;;;5098308;28;20913;-74
2022/01/14 04:24:49;;;;;;;50.07;19.30;;;1.30;83.30;;;;;;5100927;28;20300;-73
2022/01/14 04:27:18;;;;;;;47.47;18.87;;;1.30;83.30;;;;;;5100249;28;20193;-73
2022/01/14 04:29:47;;;;;;;49.10;19.67;;;1.30;83.40;;;;;;5101616;28;20188;-74
2022/01/14 04:32:15;;;;;;;47.90;19.70;;;1.30;83.40;;;;;;5095369;28;20229;-75
2022/01/14 04:34:43;;;;;;;46.57;20.33;;;1.30;83.30;;;;;;5101675;28;20200;-73
2022/01/14 04:37:11;;;;;;;40.50;19.87;;;1.30;83.30;;;;;;5102827;28;20230;-74
2022/01/14 04:39:40;;;;;;;45.20;20.00;;;1.30;83.30;;;;;;5101080;28;20235;-76
2022/01/14 04:42:08;;;;;;;47.57;20.77;;;1.20;83.30;;;;;;5100051;28;20208;-73
2022/01/14 04:44:38;;;;;;;43.53;19.90;;;1.20;83.30;;;;;;5096049;28;20220;-73
2022/01/14 04:47:17;;;;;;;44.20;20.07;;;1.20;83.30;;;;;;5096414;28;20212;-73
2022/01/14 04:49:45;;;;;;;52.57;21.43;;;1.20;83.50;;;;;;5100781;28;20193;-73
2022/01/14 04:52:13;;;;;;;43.43;19.87;;;1.30;83.50;;;;;;5101064;28;20759;-74
2022/01/14 04:54:42;;;;;;;43.47;19.43;;;1.20;83.60;;;;;;5101396;28;20197;-74
2022/01/14 04:57:11;;;;;;;51.17;20.30;;;1.20;83.60;;;;;;5098754;28;20829;-74
2022/01/14 04:59:41;;;;;;;43.57;19.30;;;1.20;83.70;;;;;;5098902;28;20645;-74
2022/01/14 05:02:09;;;;;;;44.60;19.77;;;1.30;83.60;;;;;;5098673;28;20225;-74
2022/01/14 05:04:38;;;;;;;50.63;19.87;;;1.30;83.60;;;;;;5100435;28;20221;-74
2022/01/14 05:07:11;;;;;;;49.57;20.13;;;1.30;83.50;;;;;;5099387;28;20223;-73
2022/01/14 05:09:44;;;;;;;48.00;20.17;;;1.30;83.50;;;;;;5096766;28;20200;-74
2022/01/14 05:12:12;;;;;;;45.67;20.83;;;1.20;83.40;;;;;;5099804;28;20196;-75
2022/01/14 05:14:42;;;;;;;46.60;20.30;;;1.20;83.40;;;;;;5099044;28;20335;-74
2022/01/14 05:17:10;;;;;;;41.93;18.53;;;1.20;83.70;;;;;;5089777;28;20201;-75
2022/01/14 05:19:39;;;;;;;46.75;22.50;;;1.20;83.60;;;;;;5095205;28;20434;-74
2022/01/14 05:22:10;;;;;;;47.83;20.27;;;1.20;83.90;;;;;;5099811;28;20193;-74
2022/01/14 05:24:39;;;;;;;41.40;19.17;;;1.20;83.90;;;;;;5103914;28;20227;-74
2022/01/14 05:27:07;;;;;;;50.47;20.57;;;1.20;83.80;;;;;;5101138;28;20188;-75
2022/01/14 05:29:35;;;;;;;45.90;19.73;;;1.20;83.90;;;;;;5101845;28;20200;-74
2022/01/14 05:32:11;;;;;;;41.43;19.67;;;1.20;83.80;;;;;;5099021;28;20254;-74
2022/01/14 05:34:40;;;;;;;43.37;19.40;;;1.20;83.80;;;;;;5101215;28;20210;-74
2022/01/14 05:37:09;;;;;;;47.67;21.30;;;1.20;83.70;;;;;;5099444;28;20196;-75
2022/01/14 05:39:37;;;;;;;44.30;19.20;;;1.10;83.70;;;;;;5099856;28;20309;-74
2022/01/14 05:42:09;;;;;;;45.97;20.00;;;1.20;83.80;;;;;;5100565;28;20197;-74
2022/01/14 05:44:38;;;;;;;42.93;18.27;;;1.20;83.80;;;;;;5102293;28;20685;-74
2022/01/14 05:47:08;;;;;;;42.40;18.60;;;1.20;84.80;;;;;;5094456;28;20265;-73
2022/01/14 05:49:36;;;;;;;50.23;21.03;;;1.20;83.90;;;;;;5092312;28;20208;-73
2022/01/14 05:52:05;;;;;;;43.50;18.87;;;1.20;83.80;;;;;;5099244;28;20246;-74
2022/01/14 05:54:34;;;;;;;44.70;19.90;;;1.30;83.80;;;;;;5101738;28;20205;-74
2022/01/14 05:57:02;;;;;;;48.67;20.03;;;1.30;83.80;;;;;;5102041;28;20200;-74
2022/01/14 05:59:30;;;;;;;47.83;19.13;;;1.30;83.70;;;;;;5101788;28;20191;-74
2022/01/14 06:01:59;;;;;;;42.87;18.70;;;1.30;83.60;;;;;;5102052;28;20189;-75
2022/01/14 06:04:28;;;;;;;46.47;20.67;;;1.30;83.60;;;;;;5098406;28;20921;-74
2022/01/14 06:06:57;;;;;;;51.93;21.67;;;1.40;83.60;;;;;;5100752;28;20196;-74
2022/01/14 06:09:25;;;;;;;44.43;20.13;;;1.40;83.50;;;;;;5103260;28;20204;-74
2022/01/14 06:11:53;;;;;;;45.33;20.40;;;1.30;83.50;;;;;;5103362;28;20225;-74
2022/01/14 06:14:22;;;;;;;41.40;19.00;;;1.40;83.60;;;;;;5103152;28;20200;-75
2022/01/14 06:16:50;;;;;;;42.90;19.40;;;1.40;83.80;;;;;;5100776;28;20197;-76
2022/01/14 06:19:18;;;;;;;46.17;18.50;;;1.40;83.80;;;;;;5094961;28;20934;-73
2022/01/14 06:21:48;;;;;;;50.73;19.53;;;1.40;83.70;;;;;;5100160;28;20193;-74
2022/01/14 06:24:17;;;;;;;45.17;19.40;;;1.40;83.60;;;;;;5102639;28;20226;-73
2022/01/14 06:26:45;;;;;;;45.73;19.10;;;1.50;83.50;;;;;;5099645;28;20611;-74
2022/01/14 06:29:13;;;;;;;45.83;19.77;;;1.50;83.30;;;;;;5105454;28;20193;-74
2022/01/14 06:31:41;;;;;;;45.33;19.40;;;1.50;83.30;;;;;;5106982;28;20194;-74
2022/01/14 06:34:10;;;;;;;45.93;19.43;;;1.50;83.30;;;;;;5106860;28;20730;-75
2022/01/14 06:36:38;;;;;;;46.70;20.07;;;1.60;83.40;;;;;;5107003;28;20209;-74
2022/01/14 06:39:08;;;;;;;44.23;19.63;;;1.60;83.30;;;;;;5107423;28;20193;-74
2022/01/14 06:41:37;;;;;;;47.13;19.97;;;1.60;83.30;;;;;;5108014;28;20196;-74
2022/01/14 06:44:06;;;;;;;39.63;19.10;;;1.70;83.40;;;;;;5103635;28;20213;-74
2022/01/14 06:46:34;;;;;;;52.40;21.33;;;1.70;83.50;;;;;;5094781;28;20189;-74
2022/01/14 06:49:03;;;;;;;47.90;22.50;;;1.70;83.40;;;;;;5100809;28;20786;-73
2022/01/14 06:51:31;;;;;;;45.37;19.97;;;1.70;83.50;;;;;;5092476;28;20193;-74
2022/01/14 06:54:00;;;;;;;39.20;18.87;;;1.80;83.60;;;;;;5107209;28;20861;-75
2022/01/14 06:56:30;;;;;;;49.53;20.10;;;1.80;83.40;;;;;;5106455;28;20197;-74
2022/01/14 06:58:58;;;;;;;39.37;17.93;;;1.80;83.30;;;;;;5105591;28;20185;-75
2022/01/14 07:01:26;;;;;;;41.97;18.70;;;1.80;83.20;;;;;;5101722;28;20231;-74
2022/01/14 07:03:55;;;;;;;41.03;18.37;;;1.80;83.00;;;;;;5105725;28;20204;-74
2022/01/14 07:06:23;;;;;;;41.00;18.27;;;1.90;83.10;;;;;;5102954;28;20208;-74
2022/01/14 07:08:51;;;;;;;41.83;18.87;;;1.90;83.00;;;;;;5102995;28;20400;-75
2022/01/14 07:11:25;;;;;;;45.37;18.60;;;2.00;83.10;;;;;;5104058;28;20197;-74
2022/01/14 07:13:54;;;;;;;51.60;19.70;;;2.00;82.80;;;;;;5104514;28;20185;-74
2022/01/14 07:16:23;;;;;;;48.03;18.83;;;2.00;83.00;;;;;;5105892;28;20189;-74
2022/01/14 07:18:51;;;;;;;48.43;20.77;;;2.10;83.10;;;;;;5104474;28;20193;-75
2022/01/14 07:21:22;;;;;;;43.73;19.07;;;2.20;83.00;;;;;;5106116;28;20193;-75
2022/01/14 07:23:50;;;;;;;40.47;18.37;;;2.20;83.00;;;;;;5106793;28;20193;-75
2022/01/14 07:26:21;;;;;;;46.10;22.15;;;2.30;83.00;;;;;;5106171;28;20417;-76
2022/01/14 07:28:49;;;;;;;43.37;18.43;;;2.30;83.30;;;;;;5106101;28;20697;-76
2022/01/14 07:31:19;;;;;;;39.50;18.93;;;2.30;82.80;;;;;;5106953;28;20195;-75
2022/01/14 07:33:47;;;;;;;47.77;17.90;;;2.40;82.70;;;;;;5106831;28;20917;-73
2022/01/14 07:36:16;;;;;;;40.80;19.47;;;2.40;82.80;;;;;;5106093;28;20601;-74
2022/01/14 07:38:44;;;;;;;39.70;18.10;;;2.50;82.80;;;;;;5107297;28;20205;-76
2022/01/14 07:41:12;;;;;;;40.53;19.07;;;2.60;82.80;;;;;;5107180;28;20633;-74
2022/01/14 07:43:41;;;;;;;42.67;19.20;;;2.70;83.00;;;;;;5105752;28;20211;-76
2022/01/14 07:46:09;;;;;;;46.20;18.67;;;2.80;82.90;;;;;;5105879;28;20211;-77
2022/01/14 07:48:39;;;;;;;39.93;17.93;;;2.90;81.90;;;;;;5105630;28;20199;-76
2022/01/14 07:51:09;;;;;;;42.63;18.87;;;2.90;81.60;;;;;;5105910;28;20551;-75
2022/01/14 07:53:40;;;;;;;45.47;18.83;;;2.90;81.50;;;;;;5105535;28;20182;-75
2022/01/14 07:56:11;;;;;;;35.77;16.90;;;3.00;81.70;;;;;;5101643;28;20185;-75
2022/01/14 07:58:41;;;;;;;40.13;16.23;;;3.10;81.70;;;;;;5105769;28;20185;-75
2022/01/14 08:01:10;;;;;;;38.70;17.90;;;3.10;81.70;;;;;;5106197;28;20196;-74
2022/01/14 08:03:39;;;;;;;35.57;16.90;;;3.20;81.70;;;;;;5104665;28;20222;-75
2022/01/14 08:06:10;;;;;;;40.77;16.77;;;3.30;81.60;;;;;;5102890;28;20212;-76
2022/01/14 08:08:39;;;;;;;38.83;16.07;;;3.30;81.10;;;;;;5104967;28;20188;-75
2022/01/14 08:11:07;;;;;;;36.83;16.77;;;3.40;80.80;;;;;;5105634;28;20198;-75
2022/01/14 08:13:35;;;;;;;42.07;17.07;;;3.50;80.80;;;;;;5105444;28;20199;-76
2022/01/14 08:16:04;;;;;;;40.20;16.17;;;3.60;80.80;;;;;;5105404;28;20195;-74
2022/01/14 08:18:32;;;;;;;38.27;16.50;;;3.70;80.70;;;;;;5104615;28;20667;-75
2022/01/14 08:21:02;;;;;;;38.33;17.47;;;3.70;80.40;;;;;;5104547;28;20188;-75
2022/01/14 08:23:31;;;;;;;37.90;16.60;;;3.80;80.50;;;;;;5104149;28;20191;-75
2022/01/14 08:25:59;;;;;;;30.57;14.93;;;3.90;80.20;;;;;;5104349;28;20215;-76
2022/01/14 08:28:28;;;;;;;36.93;16.53;;;4.00;80.20;;;;;;5101982;28;20192;-74
2022/01/14 08:30:56;;;;;;;32.60;15.03;;;4.10;80.10;;;;;;5096426;28;20188;-74
2022/01/14 08:33:25;;;;;;;34.47;14.53;;;4.20;79.90;;;;;;5104311;28;20241;-74
2022/01/14 08:35:53;;;;;;;40.73;16.53;;;4.30;79.90;;;;;;5105153;28;20733;-73
2022/01/14 08:38:23;;;;;;;29.30;14.77;;;4.40;79.30;;;;;;5105818;28;20191;-74
2022/01/14 08:40:52;;;;;;;39.63;17.47;;;4.50;79.60;;;;;;5105239;28;20173;-73
2022/01/14 08:43:21;;;;;;;33.03;15.57;;;4.60;79.50;;;;;;5102891;28;20608;-75
2022/01/14 08:45:50;;;;;;;35.73;15.43;;;4.60;79.40;;;;;;5104354;28;20342;-74
2022/01/14 08:48:19;;;;;;;29.80;14.63;;;4.70;79.70;;;;;;5105240;28;20238;-74
2022/01/14 08:50:47;;;;;;;34.07;14.93;;;4.70;79.50;;;;;;5104625;28;20196;-73
2022/01/14 08:53:16;;;;;;;33.93;15.30;;;4.70;79.30;;;;;;5104243;28;20192;-73
2022/01/14 08:55:46;;;;;;;33.10;14.53;;;4.70;79.50;;;;;;5102180;28;20197;-74
2022/01/14 08:58:14;;;;;;;35.87;16.03;;;4.70;79.20;;;;;;5104596;28;20192;-73
2022/01/14 09:00:43;;;;;;;33.10;14.70;;;4.70;79.30;;;;;;5103982;28;20204;-73
2022/01/14 09:03:11;;;;;;;32.73;15.87;;;4.80;79.60;;;;;;5105267;28;20185;-74
2022/01/14 09:05:40;;;;;;;39.97;15.53;;;4.90;79.80;;;;;;5104859;28;20244;-75
2022/01/14 09:08:08;;;;;;;38.00;16.63;;;4.90;80.10;;;;;;5096495;28;20658;-74
2022/01/14 09:10:37;;;;;;;32.80;15.23;;;5.00;80.00;;;;;;5103786;28;20196;-73
2022/01/14 09:13:06;;;;;;;32.77;14.03;;;5.10;80.10;;;;;;5103805;28;20776;-73
2022/01/14 09:15:36;;;;;;;31.33;13.53;;;5.10;79.90;;;;;;5104530;28;20189;-75
2022/01/14 09:18:05;;;;;;;30.63;14.90;;;5.20;79.90;;;;;;5103198;28;20196;-73
2022/01/14 09:20:33;;;;;;;34.07;14.30;;;5.20;79.60;;;;;;5102585;28;20182;-74
2022/01/14 09:23:03;;;;;;;30.60;13.70;;;5.20;79.50;;;;;;5103074;28;20609;-74
2022/01/14 09:25:32;;;;;;;29.13;14.07;;;5.30;79.80;;;;;;5104767;28;20220;-75
2022/01/14 09:28:00;;;;;;;31.53;14.50;;;5.30;79.50;;;;;;5103704;28;20192;-75
2022/01/14 09:30:30;;;;;;;35.03;14.13;;;5.30;79.50;;;;;;5104207;28;20212;-74
2022/01/14 09:32:58;;;;;;;30.57;13.17;;;5.40;79.70;;;;;;5104659;28;20392;-75
2022/01/14 09:35:27;;;;;;;32.40;13.77;;;5.50;79.50;;;;;;5104561;28;20228;-74
2022/01/14 09:37:55;;;;;;;29.10;13.40;;;5.50;79.40;;;;;;5103260;28;20189;-75
2022/01/14 09:40:27;;;;;;;29.77;13.60;;;5.60;79.00;;;;;;5102782;28;20856;-73
2022/01/14 09:43:00;;;;;;;30.17;13.37;;;5.60;78.70;;;;;;5106016;28;20193;-74
2022/01/14 09:45:50;;;;;;;29.77;12.53;;;5.60;78.70;;;;;;5106939;28;20220;-75
2022/01/14 09:48:19;;;;;;;29.50;13.57;;;5.70;79.10;;;;;;5099320;28;20186;-74
2022/01/14 09:50:47;;;;;;;45.13;14.27;;;5.70;79.00;;;;;;5106452;28;20192;-74
2022/01/14 09:53:16;;;;;;;31.97;13.33;;;5.70;79.10;;;;;;5109946;28;20916;-73
2022/01/14 09:55:45;;;;;;;30.03;13.63;;;5.70;79.10;;;;;;5106769;28;20197;-74
2022/01/14 09:58:13;;;;;;;30.53;13.83;;;5.70;79.30;;;;;;5107021;28;20201;-74
2022/01/14 10:00:41;;;;;;;27.37;12.87;;;5.90;79.60;;;;;;5106807;28;20632;-75
2022/01/14 10:03:23;;;;;;;35.37;14.77;;;5.90;79.70;;;;;;5105299;28;20196;-74
2022/01/14 10:05:52;;;;;;;30.63;13.50;;;6.00;79.70;;;;;;5106010;28;20233;-73
2022/01/14 10:08:24;;;;;;;28.93;13.90;;;6.00;79.30;;;;;;5106539;28;20215;-74
2022/01/14 10:10:56;;;;;;;27.37;14.10;;;6.10;79.60;;;;;;5107018;28;20185;-73
2022/01/14 10:13:26;;;;;;;26.67;12.53;;;6.10;79.70;;;;;;5106324;28;20266;-74
2022/01/14 10:16:05;;;;;;;28.40;13.70;;;6.10;79.10;;;;;;5105247;28;20849;-74
2022/01/14 10:18:36;;;;;;;34.90;13.87;;;6.20;79.00;;;;;;5102898;28;20804;-74
2022/01/14 10:21:06;;;;;;;29.43;12.33;;;6.20;79.00;;;;;;5102683;28;20190;-74
2022/01/14 10:23:43;;;;;;;29.97;13.13;;;6.20;78.70;;;;;;5107266;28;20178;-75
2022/01/14 10:26:12;;;;;;;33.20;14.27;;;6.30;78.80;;;;;;5105023;28;20228;-73
2022/01/14 10:28:44;;;;;;;30.93;12.60;;;6.30;78.80;;;;;;5101646;28;20206;-74
2022/01/14 10:31:13;;;;;;;27.13;12.57;;;6.40;78.70;;;;;;5105583;28;20666;-73
2022/01/14 10:33:43;;;;;;;26.40;12.20;;;6.40;78.70;;;;;;5106030;28;20190;-74
2022/01/14 10:36:21;;;;;;;29.20;13.13;;;6.50;78.60;;;;;;5101895;28;20219;-75
2022/01/14 10:38:49;;;;;;;27.30;12.07;;;6.50;78.30;;;;;;5100009;28;20191;-74
2022/01/14 10:41:19;;;;;;;33.23;13.37;;;6.60;78.20;;;;;;5105411;28;20194;-75
2022/01/14 10:43:47;;;;;;;27.33;12.87;;;6.60;78.00;;;;;;5098992;28;20204;-73
2022/01/14 10:46:15;;;;;;;27.60;12.67;;;6.60;79.00;;;;;;5104408;28;20335;-73
2022/01/14 10:48:47;;;;;;;26.40;12.13;;;6.70;78.30;;;;;;5104373;28;20242;-74
2022/01/14 10:51:18;;;;;;;25.07;11.87;;;6.80;78.20;;;;;;5104547;28;20208;-76
2022/01/14 10:53:53;;;;;;;28.53;12.53;;;6.80;78.30;;;;;;5103807;28;20210;-73
2022/01/14 10:56:25;;;;;;;22.30;11.10;;;6.90;78.40;;;;;;5105947;28;20174;-74
2022/01/14 10:58:59;;;;;;;24.07;12.00;;;7.00;78.30;;;;;;5105147;28;20246;-73
2022/01/14 11:01:30;;;;;;;30.57;12.87;;;7.10;78.20;;;;;;5104287;28;20195;-73
2022/01/14 11:04:10;;;;;;;27.17;11.90;;;7.10;77.90;;;;;;5105596;28;20181;-76
2022/01/14 11:06:42;;;;;;;23.27;11.33;;;7.20;77.90;;;;;;5097762;28;20239;-75
2022/01/14 11:09:11;;;;;;;25.00;11.10;;;7.30;77.70;;;;;;5105260;28;20269;-73
2022/01/14 11:11:42;;;;;;;28.07;11.87;;;7.30;77.70;;;;;;5098246;28;20212;-73
2022/01/14 11:14:10;;;;;;;25.27;11.60;;;7.40;77.90;;;;;;5106411;28;20185;-74
2022/01/14 11:16:39;;;;;;;27.17;12.43;;;7.40;77.70;;;;;;5105953;28;20284;-74
2022/01/14 11:19:10;;;;;;;22.53;11.67;;;7.50;78.00;;;;;;5106044;28;20196;-75
2022/01/14 11:24:30;;;;;;;23.57;11.70;;;7.60;77.50;;;;;;5104482;28;20249;-74
2022/01/14 11:27:03;;;;;;;22.37;10.47;;;7.60;78.30;;;;;;5104859;28;20208;-75
2022/01/14 11:29:35;;;;;;;21.13;10.70;;;7.60;77.50;;;;;;5105520;28;20275;-72
2022/01/14 11:32:05;;;;;;;21.97;10.77;;;7.60;77.60;;;;;;5105380;28;20192;-76
2022/01/14 11:34:39;;;;;;;26.37;10.87;;;7.70;77.80;;;;;;5105174;28;20180;-73
2022/01/14 11:37:10;;;;;;;28.20;11.27;;;7.80;77.80;;;;;;5105490;28;20753;-76
2022/01/14 11:39:40;;;;;;;25.73;11.23;;;7.80;78.00;;;;;;5105333;28;20181;-74
2022/01/14 11:42:13;;;;;;;21.70;10.17;;;7.90;78.10;;;;;;5105470;28;20181;-73
2022/01/14 11:44:57;;;;;;;21.30;10.63;;;7.90;77.90;;;;;;5105474;28;20190;-74
2022/01/14 11:47:58;;;;;;;20.07;10.47;;;7.90;77.80;;;;;;5105176;28;20208;-75
2022/01/14 11:51:01;;;;;;;20.10;9.93;;;8.00;77.90;;;;;;5101192;28;20193;-74
2022/01/14 11:53:39;;;;;;;20.47;10.73;;;8.00;78.00;;;;;;5101886;28;20176;-75
2022/01/14 11:56:24;;;;;;;24.40;11.10;;;8.10;78.00;;;;;;5097975;28;20742;-74
2022/01/14 11:58:52;;;;;;;24.33;10.37;;;8.10;78.10;;;;;;5103994;28;20561;-73
2022/01/14 12:01:33;;;;;;;22.43;11.07;;;8.10;78.00;;;;;;5105242;28;20197;-75
2022/01/14 12:04:02;;;;;;;19.80;9.77;;;8.20;78.20;;;;;;5097098;28;20891;-75
2022/01/14 12:07:02;;;;;;;22.50;10.53;;;8.20;78.30;;;;;;5103548;28;20216;-73
2022/01/14 12:09:33;;;;;;;18.60;10.67;;;8.20;78.20;;;;;;5102097;28;20190;-75
2022/01/14 12:12:23;;;;;;;22.30;10.63;;;8.30;78.20;;;;;;5101890;28;20712;-73
2022/01/14 12:14:57;;;;;;;22.63;10.40;;;8.30;78.00;;;;;;5104814;28;20193;-76
2022/01/14 12:17:33;;;;;;;21.33;10.03;;;8.30;77.90;;;;;;5101951;28;20177;-74
2022/01/14 12:20:10;;;;;;;18.17;8.73;;;8.30;78.20;;;;;;5101570;28;20190;-74
2022/01/14 12:22:40;;;;;;;18.67;9.47;;;8.40;78.40;;;;;;5098531;28;20188;-73
2022/01/14 12:25:10;;;;;;;17.93;9.80;;;8.40;78.50;;;;;;5105937;28;20173;-74
2022/01/14 12:27:47;;;;;;;23.37;9.57;;;8.40;78.50;;;;;;5105110;28;20220;-73
2022/01/14 12:30:33;;;;;;;17.63;8.53;;;8.50;78.60;;;;;;5100297;28;20193;-73
2022/01/14 12:33:01;;;;;;;19.37;9.10;;;8.60;78.30;;;;;;5095197;28;20242;-73
2022/01/14 12:35:35;;;;;;;19.00;9.43;;;8.60;78.10;;;;;;5095416;28;20225;-73
2022/01/14 12:38:05;;;;;;;18.58;9.52;;;8.70;78.10;;;;;;5100981;28;21287;-76
2022/01/14 12:40:37;;;;;;;16.83;8.57;;;8.70;77.80;;;;;;5102781;28;20549;-74
2022/01/14 12:43:08;;;;;;;16.67;8.10;;;8.70;77.50;;;;;;5098097;28;20192;-74
2022/01/14 12:45:51;;;;;;;17.60;8.83;;;8.80;77.60;;;;;;5103031;28;20189;-74
2022/01/14 12:48:40;;;;;;;21.97;9.77;;;8.90;77.70;;;;;;5102707;28;20751;-73
2022/01/14 12:51:12;;;;;;;14.90;7.90;;;8.90;77.80;;;;;;5104187;28;20204;-73
2022/01/14 12:53:57;;;;;;;16.30;7.97;;;9.00;77.50;;;;;;5103991;28;20181;-74
2022/01/14 12:56:27;;;;;;;23.30;8.30;;;9.10;77.20;;;;;;5096134;28;20211;-75
2022/01/14 12:59:01;;;;;;;18.10;8.73;;;9.10;76.90;;;;;;5102471;28;20254;-74
2022/01/14 13:01:32;;;;;;;18.53;8.80;;;9.10;76.30;;;;;;5101398;28;20529;-73
2022/01/14 13:04:03;;;;;;;17.13;8.93;;;9.10;76.40;;;;;;5093343;28;20190;-73
2022/01/14 13:06:48;;;;;;;18.60;8.47;;;9.20;76.60;;;;;;5102477;28;20184;-77
2022/01/14 13:09:22;;;;;;;14.93;7.27;;;9.30;76.50;;;;;;5098409;28;20202;-74
2022/01/14 13:11:57;;;;;;;18.30;7.90;;;9.30;76.30;;;;;;5098836;28;20201;-72
2022/01/14 13:14:33;;;;;;;19.80;8.33;;;9.50;76.80;;;;;;5095068;28;20226;-73
2022/01/14 13:17:10;;;;;;;16.57;7.60;;;9.70;76.10;;;;;;5099530;28;20248;-75